createdAt,value
2018-05-02T00:01:00.669Z,4.73
2018-05-02T00:03:28.779Z,2.97
2018-05-02T00:05:55.071Z,2.77
2018-05-02T00:08:21.425Z,3.07
2018-05-02T00:10:47.947Z,2.97
2018-05-02T00:13:15.104Z,2.57
2018-05-02T00:15:42.658Z,4.40
2018-05-02T00:18:09.007Z,2.90
2018-05-02T00:20:35.309Z,3.90
2018-05-02T00:23:01.881Z,2.43
2018-05-02T00:25:28.234Z,3.10
2018-05-02T00:27:54.600Z,2.60
2018-05-02T00:30:22.178Z,3.03
2018-05-02T00:32:49.252Z,3.00
2018-05-02T00:35:15.797Z,3.23
2018-05-02T00:37:42.993Z,4.27
2018-05-02T00:40:10.398Z,6.40
2018-05-02T00:42:36.790Z,3.70
2018-05-02T00:45:03.296Z,2.53
2018-05-02T00:47:29.781Z,3.43
2018-05-02T00:49:56.844Z,2.53
2018-05-02T00:52:23.252Z,3.47
2018-05-02T00:54:50.440Z,2.70
2018-05-02T00:57:16.976Z,3.10
2018-05-02T00:59:43.490Z,3.33
2018-05-02T01:02:09.799Z,3.10
2018-05-02T01:04:36.851Z,3.07
2018-05-02T01:07:03.132Z,3.43
2018-05-02T01:09:30.157Z,3.60
2018-05-02T01:11:56.455Z,2.97
2018-05-02T01:14:22.697Z,2.70
2018-05-02T01:16:49.714Z,3.00
2018-05-02T01:19:20.123Z,4.67
2018-05-02T01:21:47.538Z,2.87
2018-05-02T01:24:13.925Z,4.13
2018-05-02T01:26:40.313Z,3.20
2018-05-02T01:29:06.724Z,3.10
2018-05-02T01:31:34.661Z,3.23
2018-05-02T01:34:01.007Z,3.47
2018-05-02T01:36:28.013Z,3.80
2018-05-02T01:38:54.349Z,3.87
2018-05-02T01:41:20.781Z,3.30
2018-05-02T01:43:48.043Z,6.97
2018-05-02T01:46:14.478Z,5.00
2018-05-02T01:48:40.799Z,3.50
2018-05-02T01:51:07.121Z,2.87
2018-05-02T01:53:34.034Z,3.50
2018-05-02T01:56:00.418Z,3.53
2018-05-02T01:58:28.163Z,2.90
2018-05-02T02:00:55.203Z,2.90
2018-05-02T02:03:21.519Z,2.43
2018-05-02T02:05:47.877Z,4.50
2018-05-02T02:08:14.205Z,3.27
2018-05-02T02:10:40.511Z,3.90
2018-05-02T02:13:06.950Z,3.63
2018-05-02T02:15:33.330Z,5.63
2018-05-02T02:17:59.794Z,3.37
2018-05-02T02:20:26.141Z,3.10
2018-05-02T02:22:52.497Z,3.13
2018-05-02T02:25:18.797Z,2.80
2018-05-02T02:27:45.091Z,3.53
2018-05-02T02:30:11.511Z,2.70
2018-05-02T02:32:38.002Z,3.57
2018-05-02T02:35:05.937Z,4.17
2018-05-02T02:37:32.908Z,4.23
2018-05-02T02:39:59.243Z,4.57
2018-05-02T02:47:58.141Z,3.00
2018-05-02T02:50:24.460Z,3.17
2018-05-02T02:52:51.569Z,3.47
2018-05-02T02:55:18.639Z,2.63
2018-05-02T02:57:44.921Z,3.73
2018-05-02T03:00:12.191Z,3.20
2018-05-02T03:02:38.589Z,4.37
2018-05-02T03:05:04.928Z,3.17
2018-05-02T03:07:31.358Z,3.83
2018-05-02T03:09:57.708Z,3.43
2018-05-02T03:12:24.032Z,4.63
2018-05-02T03:14:50.417Z,5.27
2018-05-02T03:17:16.796Z,2.80
2018-05-02T03:19:43.226Z,4.53
2018-05-02T03:22:09.717Z,5.10
2018-05-02T03:24:36.821Z,3.13
2018-05-02T03:27:03.271Z,3.73
2018-05-02T03:29:29.753Z,4.83
2018-05-02T03:31:56.117Z,4.50
2018-05-02T03:34:22.479Z,3.73
2018-05-02T03:36:48.818Z,3.40
2018-05-02T03:39:15.211Z,3.53
2018-05-02T03:41:41.551Z,3.10
2018-05-02T03:44:07.979Z,3.30
2018-05-02T03:46:34.362Z,2.83
2018-05-02T03:49:01.415Z,3.77
2018-05-02T03:51:27.811Z,3.50
2018-05-02T03:53:54.232Z,4.20
2018-05-02T03:56:20.637Z,5.37
2018-05-02T03:58:47.075Z,3.90
2018-05-02T04:01:14.203Z,3.50
2018-05-02T04:03:40.543Z,3.33
2018-05-02T04:06:07.636Z,4.30
2018-05-02T04:08:34.179Z,3.23
2018-05-02T04:11:00.714Z,3.63
2018-05-02T04:13:27.056Z,3.50
2018-05-02T04:15:53.686Z,3.33
2018-05-02T04:18:20.043Z,3.03
2018-05-02T04:20:46.397Z,3.00
2018-05-02T04:23:13.083Z,3.13
2018-05-02T04:25:39.420Z,3.27
2018-05-02T04:28:05.758Z,3.47
2018-05-02T04:30:32.122Z,3.10
2018-05-02T04:32:58.399Z,3.40
2018-05-02T04:35:25.570Z,4.30
2018-05-02T04:37:52.002Z,4.63
2018-05-02T04:40:18.415Z,3.40
2018-05-02T04:42:44.754Z,5.37
2018-05-02T04:45:11.078Z,3.53
2018-05-02T04:47:38.097Z,3.77
2018-05-02T04:50:04.367Z,3.40
2018-05-02T04:52:30.784Z,3.10
2018-05-02T04:54:57.084Z,3.73
2018-05-02T04:57:23.432Z,5.30
2018-05-02T04:59:50.350Z,3.60
2018-05-02T05:02:16.873Z,3.10
2018-05-02T05:04:43.287Z,3.97
2018-05-02T05:07:09.603Z,5.60
2018-05-02T05:09:36.642Z,3.27
2018-05-02T05:12:02.977Z,3.03
2018-05-02T05:14:29.295Z,3.00
2018-05-02T05:16:55.777Z,3.97
2018-05-02T05:19:22.201Z,4.23
2018-05-02T05:21:48.611Z,3.00
2018-05-02T05:24:15.067Z,3.70
2018-05-02T05:26:42.196Z,3.47
2018-05-02T05:29:08.635Z,6.47
2018-05-02T05:31:35.101Z,4.57
2018-05-02T05:34:01.525Z,6.93
2018-05-02T05:36:27.904Z,3.73
2018-05-02T05:38:54.243Z,4.10
2018-05-02T05:41:21.465Z,4.23
2018-05-02T05:43:47.873Z,3.87
2018-05-02T05:46:14.816Z,3.33
2018-05-02T05:48:41.113Z,3.67
2018-05-02T05:51:07.601Z,5.33
2018-05-02T05:53:33.967Z,4.57
2018-05-02T05:56:00.360Z,4.33
2018-05-02T05:58:26.741Z,6.30
2018-05-02T06:00:54.773Z,3.80
2018-05-02T06:03:21.517Z,3.83
2018-05-02T06:05:47.952Z,5.30
2018-05-02T06:08:14.787Z,3.23
2018-05-02T06:10:41.165Z,3.63
2018-05-02T06:13:07.475Z,3.60
2018-05-02T06:15:33.977Z,4.50
2018-05-02T06:18:00.337Z,4.80
2018-05-02T06:20:26.726Z,3.07
2018-05-02T06:22:53.797Z,3.17
2018-05-02T06:25:20.190Z,5.50
2018-05-02T06:27:46.616Z,3.50
2018-05-02T06:30:12.951Z,3.10
2018-05-02T06:32:40.072Z,3.20
2018-05-02T06:35:06.488Z,4.17
2018-05-02T06:37:32.896Z,3.47
2018-05-02T06:39:59.972Z,3.23
2018-05-02T06:42:26.357Z,2.43
2018-05-02T06:44:53.605Z,2.50
2018-05-02T06:47:20.741Z,4.47
2018-05-02T06:49:47.857Z,2.63
2018-05-02T06:52:14.289Z,4.00
2018-05-02T06:54:40.608Z,2.73
2018-05-02T06:57:07.697Z,4.23
2018-05-02T06:59:34.135Z,2.67
2018-05-02T07:02:00.506Z,3.17
2018-05-02T07:04:27.646Z,3.77
2018-05-02T07:06:53.957Z,3.90
2018-05-02T07:09:20.397Z,3.40
2018-05-02T07:11:46.721Z,3.63
2018-05-02T07:14:13.094Z,3.30
2018-05-02T07:16:39.470Z,3.27
2018-05-02T07:19:05.793Z,4.53
2018-05-02T07:21:32.130Z,3.40
2018-05-02T07:23:58.524Z,2.50
2018-05-02T07:26:24.913Z,7.77
2018-05-02T07:28:51.306Z,4.27
2018-05-02T07:31:17.628Z,3.00
2018-05-02T07:33:44.714Z,3.17
2018-05-02T07:36:11.190Z,5.03
2018-05-02T07:38:37.499Z,2.63
2018-05-02T07:41:03.798Z,2.40
2018-05-02T07:43:30.120Z,3.63
2018-05-02T07:45:57.166Z,4.27
2018-05-02T07:48:23.599Z,5.53
2018-05-02T07:50:49.996Z,4.23
2018-05-02T07:53:16.351Z,4.53
2018-05-02T07:55:42.689Z,3.23
2018-05-02T07:58:24.801Z,4.63
2018-05-02T08:00:51.186Z,2.13
2018-05-02T08:03:17.551Z,3.40
2018-05-02T08:05:43.979Z,1.93
2018-05-02T08:08:10.299Z,2.33
2018-05-02T08:10:37.009Z,3.90
2018-05-02T08:13:09.491Z,3.63
2018-05-02T08:15:35.829Z,2.67
2018-05-02T08:18:02.179Z,2.00
2018-05-02T08:20:28.529Z,2.17
2018-05-02T08:22:54.937Z,2.30
2018-05-02T08:25:22.027Z,2.47
2018-05-02T08:27:48.338Z,3.67
2018-05-02T08:30:15.404Z,2.37
2018-05-02T08:32:41.807Z,4.10
2018-05-02T08:35:08.192Z,3.63
2018-05-02T08:37:34.585Z,4.20
2018-05-02T08:40:01.673Z,1.90
2018-05-02T08:42:27.983Z,3.77
2018-05-02T08:44:55.059Z,2.63
2018-05-02T08:47:21.383Z,3.50
2018-05-02T08:49:47.780Z,1.97
2018-05-02T08:52:14.047Z,3.57
2018-05-02T08:54:41.410Z,2.30
2018-05-02T08:57:07.705Z,3.17
2018-05-02T08:59:34.818Z,2.33
2018-05-02T09:02:02.134Z,2.10
2018-05-02T09:04:28.587Z,1.87
2018-05-02T09:06:56.432Z,2.83
2018-05-02T09:09:22.742Z,2.87
2018-05-02T09:11:49.224Z,2.23
2018-05-02T09:14:15.652Z,2.70
2018-05-02T09:16:42.714Z,3.03
2018-05-02T09:19:09.030Z,1.93
2018-05-02T09:21:36.186Z,2.07
2018-05-02T09:24:02.613Z,2.10
2018-05-02T09:26:29.670Z,2.47
2018-05-02T09:28:56.110Z,3.23
2018-05-02T09:31:22.537Z,2.00
2018-05-02T09:33:49.696Z,4.97
2018-05-02T09:36:18.211Z,1.73
2018-05-02T09:38:44.565Z,2.33
2018-05-02T09:41:10.883Z,2.17
2018-05-02T09:43:37.173Z,4.07
2018-05-02T09:46:03.487Z,2.77
2018-05-02T09:48:30.535Z,2.23
2018-05-02T09:50:57.595Z,4.83
2018-05-02T09:53:24.031Z,3.80
2018-05-02T09:55:50.371Z,2.73
2018-05-02T09:58:16.703Z,2.20
2018-05-02T10:00:42.991Z,3.53
2018-05-02T10:03:10.282Z,1.80
2018-05-02T10:05:36.796Z,2.07
2018-05-02T10:08:03.898Z,2.63
2018-05-02T10:10:30.176Z,2.83
2018-05-02T10:12:56.494Z,2.10
2018-05-02T10:15:23.588Z,2.13
2018-05-02T10:17:50.090Z,5.70
2018-05-02T10:20:16.430Z,1.77
2018-05-02T10:22:43.512Z,1.80
2018-05-02T10:25:09.930Z,2.03
2018-05-02T10:27:36.500Z,1.97
2018-05-02T10:30:02.866Z,1.97
2018-05-02T10:32:30.652Z,1.87
2018-05-02T10:34:57.756Z,3.50
2018-05-02T10:37:24.270Z,2.70
2018-05-02T10:39:50.632Z,1.83
2018-05-02T10:42:16.964Z,1.60
2018-05-02T10:44:43.353Z,4.47
2018-05-02T10:47:09.811Z,2.20
2018-05-02T10:49:36.288Z,1.57
2018-05-02T10:52:02.692Z,4.47
2018-05-02T10:54:29.064Z,1.73
2018-05-02T10:56:56.679Z,2.17
2018-05-02T10:59:23.090Z,1.60
2018-05-02T11:01:50.233Z,2.07
2018-05-02T11:04:17.332Z,1.60
2018-05-02T11:06:43.843Z,2.10
2018-05-02T11:09:10.265Z,1.80
2018-05-02T11:11:36.683Z,1.60
2018-05-02T11:14:03.748Z,1.43
2018-05-02T11:16:30.914Z,2.10
2018-05-02T11:18:57.494Z,1.97
2018-05-02T11:21:23.816Z,1.57
2018-05-02T11:23:50.161Z,1.40
2018-05-02T11:26:16.473Z,1.70
2018-05-02T11:28:49.106Z,2.00
2018-05-02T11:31:20.541Z,2.20
2018-05-02T11:33:47.814Z,1.70
2018-05-02T11:36:14.933Z,3.07
2018-05-02T11:38:50.669Z,2.57
2018-05-02T11:41:17.018Z,2.50
2018-05-02T11:43:44.267Z,1.37
2018-05-02T11:46:11.458Z,2.03
2018-05-02T11:48:38.585Z,1.40
2018-05-02T11:51:05.149Z,1.50
2018-05-02T11:53:32.203Z,2.73
2018-05-02T11:55:59.269Z,1.62
2018-05-02T11:58:25.634Z,2.37
2018-05-02T12:00:51.984Z,1.53
2018-05-02T12:03:18.515Z,3.07
2018-05-02T12:05:50.617Z,1.60
2018-05-02T12:08:21.089Z,1.73
2018-05-02T12:10:47.686Z,2.50
2018-05-02T12:13:14.695Z,1.60
2018-05-02T12:15:42.245Z,1.92
2018-05-02T12:18:11.012Z,1.93
2018-05-02T12:20:39.495Z,2.08
2018-05-02T12:23:06.970Z,3.10
2018-05-02T12:25:33.590Z,2.00
2018-05-02T12:28:02.136Z,4.12
2018-05-02T12:30:29.200Z,1.50
2018-05-02T12:33:00.448Z,1.70
2018-05-02T12:35:28.431Z,2.77
2018-05-02T12:37:54.756Z,3.28
2018-05-02T12:40:21.184Z,2.90
2018-05-02T12:42:47.555Z,1.80
2018-05-02T12:45:13.868Z,3.23
2018-05-02T12:47:40.229Z,2.60
2018-05-02T12:50:06.560Z,2.20
2018-05-02T12:52:33.716Z,3.13
2018-05-02T12:55:01.412Z,2.17
2018-05-02T12:57:32.305Z,2.13
2018-05-02T13:02:53.679Z,2.35
2018-05-02T13:05:23.209Z,4.18
2018-05-02T13:07:52.257Z,3.43
2018-05-02T13:10:19.583Z,1.90
2018-05-02T13:12:46.985Z,3.00
2018-05-02T13:15:14.728Z,3.08
2018-05-02T13:17:41.593Z,2.00
2018-05-02T13:20:12.571Z,3.75
2018-05-02T13:22:39.063Z,6.40
2018-05-02T13:25:05.833Z,4.70
2018-05-02T13:27:32.501Z,3.72
2018-05-02T13:29:58.903Z,2.92
2018-05-02T13:32:25.347Z,3.97
2018-05-02T13:34:51.750Z,2.87
2018-05-02T13:37:18.136Z,3.03
2018-05-02T13:39:44.433Z,4.18
2018-05-02T13:42:10.719Z,4.82
2018-05-02T13:44:37.823Z,3.12
2018-05-02T13:47:04.211Z,2.87
2018-05-02T13:49:30.678Z,3.17
2018-05-02T13:51:57.104Z,4.57
2018-05-02T13:54:23.408Z,5.13
2018-05-02T13:56:49.840Z,3.97
2018-05-02T13:59:16.208Z,7.43
2018-05-02T14:01:46.086Z,5.28
2018-05-02T14:04:14.920Z,5.75
2018-05-02T14:06:42.344Z,5.40
2018-05-02T14:09:09.498Z,8.05
2018-05-02T14:11:35.878Z,14.50
2018-05-02T14:14:02.332Z,6.07
2018-05-02T14:16:28.630Z,6.57
2018-05-02T14:18:55.747Z,7.60
2018-05-02T14:21:22.170Z,9.50
2018-05-02T14:23:48.561Z,7.65
2018-05-02T14:26:15.086Z,6.18
2018-05-02T14:28:42.286Z,12.90
2018-05-02T14:31:08.626Z,10.93
2018-05-02T14:33:34.990Z,7.00
2018-05-02T14:36:01.425Z,9.00
2018-05-02T14:38:27.815Z,8.98
2018-05-02T14:40:54.158Z,8.93
2018-05-02T14:43:21.462Z,7.45
2018-05-02T14:45:47.922Z,7.82
2018-05-02T14:48:14.980Z,11.55
2018-05-02T14:50:41.308Z,7.97
2018-05-02T14:53:07.669Z,7.28
2018-05-02T14:55:34.053Z,8.63
2018-05-02T14:58:00.380Z,6.70
2018-05-02T15:00:26.743Z,9.77
2018-05-02T15:02:53.857Z,7.78
2018-05-02T15:05:21.006Z,7.53
2018-05-02T15:07:48.148Z,7.22
2018-05-02T15:10:15.277Z,8.65
2018-05-02T15:12:41.813Z,8.80
2018-05-02T15:15:08.190Z,6.10
2018-05-02T15:17:35.279Z,6.57
2018-05-02T15:20:01.675Z,6.22
2018-05-02T15:22:29.110Z,7.93
2018-05-02T15:24:56.317Z,7.80
2018-05-02T15:27:22.660Z,7.15
2018-05-02T15:29:48.978Z,6.95
2018-05-02T15:32:15.292Z,5.85
2018-05-02T15:34:42.374Z,6.20
2018-05-02T15:37:08.730Z,7.20
2018-05-02T15:39:35.846Z,7.53
2018-05-02T15:42:02.406Z,5.53
2018-05-02T15:44:29.635Z,5.82
2018-05-02T15:46:56.172Z,9.43
2018-05-02T15:49:23.048Z,4.90
2018-05-02T15:57:22.756Z,7.28
2018-05-02T15:59:49.229Z,7.22
2018-05-02T16:02:15.560Z,7.15
2018-05-02T16:04:41.967Z,6.07
2018-05-02T16:07:08.327Z,5.57
2018-05-02T16:09:34.670Z,6.35
2018-05-02T16:12:00.942Z,3.95
2018-05-02T16:14:27.961Z,6.13
2018-05-02T16:16:54.264Z,9.57
2018-05-02T16:19:21.474Z,4.27
2018-05-02T16:21:48.550Z,4.60
2018-05-02T16:24:14.962Z,5.30
2018-05-02T16:26:41.326Z,6.95
2018-05-02T16:29:07.672Z,6.20
2018-05-02T16:31:35.566Z,5.55
2018-05-02T16:34:01.997Z,6.75
2018-05-02T16:36:28.395Z,6.03
2018-05-02T16:38:54.794Z,5.82
2018-05-02T16:41:21.916Z,7.62
2018-05-02T16:43:48.232Z,5.85
2018-05-02T16:46:14.749Z,6.70
2018-05-02T16:48:41.109Z,5.27
2018-05-02T16:51:07.450Z,5.63
2018-05-02T16:53:33.852Z,6.37
2018-05-02T16:56:00.215Z,7.07
2018-05-02T16:58:26.561Z,5.33
2018-05-02T17:00:52.943Z,6.10
2018-05-02T17:03:19.365Z,7.10
2018-05-02T17:05:45.762Z,7.60
2018-05-02T17:08:12.931Z,6.63
2018-05-02T17:10:39.326Z,5.87
2018-05-02T17:13:05.735Z,7.10
2018-05-02T17:15:32.807Z,7.47
2018-05-02T17:17:59.259Z,7.87
2018-05-02T17:20:25.567Z,5.70
2018-05-02T17:22:51.857Z,6.72
2018-05-02T17:25:18.939Z,6.00
2018-05-02T17:27:45.302Z,4.80
2018-05-02T17:30:11.901Z,3.67
2018-05-02T17:32:38.340Z,3.58
2018-05-02T17:35:04.811Z,3.60
2018-05-02T17:37:31.909Z,5.33
2018-05-02T17:39:59.050Z,4.60
2018-05-02T17:42:25.333Z,5.47
2018-05-02T17:44:58.785Z,7.47
2018-05-02T17:47:25.232Z,9.83
2018-05-02T17:49:52.245Z,11.93
2018-05-02T17:52:18.584Z,10.70
2018-05-02T17:54:45.710Z,14.82
2018-05-02T17:57:12.109Z,17.17
2018-05-02T17:59:38.454Z,13.75
2018-05-02T18:02:04.835Z,16.90
2018-05-02T18:04:31.211Z,18.60
2018-05-02T18:06:57.558Z,16.60
2018-05-02T18:09:24.127Z,10.93
2018-05-02T18:11:51.213Z,12.17
2018-05-02T18:14:17.602Z,12.50
2018-05-02T18:16:44.682Z,13.73
2018-05-02T18:19:11.094Z,15.10
2018-05-02T18:21:37.592Z,14.63
2018-05-02T18:24:03.937Z,10.03
2018-05-02T18:26:30.211Z,8.57
2018-05-02T18:28:57.243Z,13.30
2018-05-02T18:31:23.666Z,14.57
2018-05-02T18:33:50.229Z,12.20
2018-05-02T18:36:16.640Z,8.60
2018-05-02T18:38:42.958Z,9.27
2018-05-02T18:41:09.459Z,9.00
2018-05-02T18:43:35.879Z,10.37
2018-05-02T18:46:02.246Z,11.37
2018-05-02T18:48:30.118Z,12.20
2018-05-02T18:50:56.443Z,12.27
2018-05-02T18:53:22.793Z,10.73
2018-05-02T18:55:49.271Z,10.30
2018-05-02T18:58:15.755Z,10.70
2018-05-02T19:00:42.375Z,11.80
2018-05-02T19:03:08.730Z,12.00
2018-05-02T19:05:35.883Z,13.03
2018-05-02T19:08:03.171Z,11.53
2018-05-02T19:10:30.358Z,14.57
2018-05-02T19:12:56.703Z,9.40
2018-05-02T19:15:23.045Z,14.90
2018-05-02T19:17:55.415Z,10.63
2018-05-02T19:20:27.907Z,7.40
2018-05-02T19:22:54.272Z,8.23
2018-05-02T19:25:26.654Z,10.80
2018-05-02T19:27:53.872Z,5.83
2018-05-02T19:30:20.232Z,6.83
2018-05-02T19:35:50.868Z,6.53
2018-05-02T19:38:17.478Z,8.97
2018-05-02T19:40:49.791Z,8.23
2018-05-02T19:43:22.095Z,8.43
2018-05-02T19:45:48.606Z,9.13
2018-05-02T19:48:14.995Z,6.97
2018-05-02T19:50:41.543Z,5.60
2018-05-02T19:53:07.994Z,5.80
2018-05-02T19:55:35.367Z,7.73
2018-05-02T19:58:02.152Z,5.87
2018-05-02T20:00:34.826Z,8.30
2018-05-02T20:03:02.192Z,7.20
2018-05-02T20:05:28.768Z,5.27
2018-05-02T20:07:55.264Z,9.00
2018-05-02T20:10:27.985Z,4.40
2018-05-02T20:13:00.492Z,11.37
2018-05-02T20:15:27.673Z,6.87
2018-05-02T20:17:54.754Z,9.63
2018-05-02T20:20:21.136Z,5.53
2018-05-02T20:22:47.523Z,6.23
2018-05-02T20:25:14.864Z,4.60
2018-05-02T20:27:41.205Z,6.27
2018-05-02T20:30:08.298Z,8.27
2018-05-02T20:32:34.636Z,8.23
2018-05-02T20:35:01.141Z,7.47
2018-05-02T20:37:27.443Z,7.33
2018-05-02T20:39:53.805Z,7.60
2018-05-02T20:42:23.075Z,6.67
2018-05-02T20:44:49.963Z,7.53
2018-05-02T20:47:17.114Z,8.00
2018-05-02T20:49:43.580Z,7.00
2018-05-02T20:52:10.649Z,6.93
2018-05-02T20:58:06.656Z,10.83
2018-05-02T21:00:33.019Z,7.27
2018-05-02T21:02:59.403Z,5.97
2018-05-02T21:05:25.708Z,7.93
2018-05-02T21:07:52.002Z,3.63
2018-05-02T21:10:18.398Z,4.67
2018-05-02T21:12:44.816Z,5.27
2018-05-02T21:15:12.040Z,6.37
2018-05-02T21:17:39.113Z,7.10
2018-05-02T21:20:05.450Z,3.93
2018-05-02T21:22:31.847Z,5.90
2018-05-02T21:24:59.066Z,5.97
2018-05-02T21:27:25.411Z,8.97
2018-05-02T21:29:52.550Z,5.27
2018-05-02T21:32:33.802Z,7.50
2018-05-02T21:35:00.988Z,4.30
2018-05-02T21:37:27.344Z,4.60
2018-05-02T21:39:53.727Z,4.43
2018-05-02T21:42:20.072Z,4.43
2018-05-02T21:44:46.425Z,6.77
2018-05-02T21:47:13.553Z,7.63
2018-05-02T21:49:39.846Z,5.20
2018-05-02T21:52:06.155Z,4.33
2018-05-02T21:54:32.495Z,3.50
2018-05-02T21:56:58.866Z,4.23
2018-05-02T21:59:25.887Z,7.17
2018-05-02T22:01:52.259Z,6.27
2018-05-02T22:04:18.611Z,3.50
2018-05-02T22:06:45.745Z,3.37
2018-05-02T22:09:12.090Z,3.97
2018-05-02T22:11:39.223Z,3.83
2018-05-02T22:14:05.604Z,3.47
2018-05-02T22:16:32.649Z,4.57
2018-05-02T22:18:59.073Z,6.03
2018-05-02T22:21:25.643Z,4.60
2018-05-02T22:23:52.127Z,5.23
2018-05-02T22:26:18.532Z,4.57
2018-05-02T22:28:44.877Z,4.90
2018-05-02T22:31:11.945Z,2.60
2018-05-02T22:33:38.323Z,4.23
2018-05-02T22:36:04.740Z,4.27
2018-05-02T22:38:31.823Z,3.60
2018-05-02T22:40:58.125Z,3.90
2018-05-02T22:43:24.499Z,4.53
2018-05-02T22:45:50.848Z,2.63
2018-05-02T22:48:17.460Z,3.77
2018-05-02T22:50:43.795Z,4.77
2018-05-02T22:53:10.168Z,6.13
2018-05-02T22:55:36.468Z,2.43
2018-05-02T22:58:02.844Z,3.00
2018-05-02T23:00:29.214Z,2.27
2018-05-02T23:02:55.556Z,3.10
2018-05-02T23:05:21.928Z,4.17
2018-05-02T23:07:48.235Z,3.80
2018-05-02T23:10:14.537Z,5.30
2018-05-02T23:12:40.925Z,3.00
2018-05-02T23:15:07.998Z,3.37
2018-05-02T23:17:34.322Z,3.67
2018-05-02T23:20:00.680Z,2.70
2018-05-02T23:22:26.999Z,2.47
2018-05-02T23:24:54.095Z,3.13
2018-05-02T23:27:20.443Z,2.73
2018-05-02T23:29:46.766Z,3.47
2018-05-02T23:32:13.148Z,5.07
2018-05-02T23:34:40.194Z,3.13
2018-05-02T23:37:07.273Z,2.10
2018-05-02T23:39:35.865Z,4.37
2018-05-02T23:42:02.216Z,3.90
2018-05-02T23:44:28.539Z,3.67
2018-05-02T23:46:54.845Z,3.43
2018-05-02T23:49:21.183Z,5.27
2018-05-02T23:51:47.748Z,2.53
2018-05-02T23:54:14.173Z,5.90
2018-05-02T23:56:40.445Z,2.33
2018-05-02T23:59:06.763Z,2.90
